sensor_id;sensor_type;location;lat;lon;timestamp;temperature;humidity
67547;HTU21D;54381;53.516;49.424;2022-10-16T00:02:26;3.69;88.16
67547;HTU21D;54381;53.516;49.424;2022-10-16T00:04:58;3.67;88.13
67547;HTU21D;54381;53.516;49.424;2022-10-16T00:07:30;3.64;88.67
67547;HTU21D;54381;53.516;49.424;2022-10-16T00:10:01;3.64;88.99
67547;HTU21D;54381;53.516;49.424;2022-10-16T00:12:33;3.63;88.97
67547;HTU21D;54381;53.516;49.424;2022-10-16T00:15:05;3.63;88.74
67547;HTU21D;54381;53.516;49.424;2022-10-16T00:17:37;3.59;88.54
67547;HTU21D;54381;53.516;49.424;2022-10-16T00:20:08;3.56;88.99
67547;HTU21D;54381;53.516;49.424;2022-10-16T00:22:40;3.53;89.43
67547;HTU21D;54381;53.516;49.424;2022-10-16T00:25:11;3.52;89.31
67547;HTU21D;54381;53.516;49.424;2022-10-16T00:27:43;3.53;89.66
67547;HTU21D;54381;53.516;49.424;2022-10-16T00:30:14;3.50;89.77
67547;HTU21D;54381;53.516;49.424;2022-10-16T00:32:46;3.49;89.62
67547;HTU21D;54381;53.516;49.424;2022-10-16T00:35:17;3.48;89.67
67547;HTU21D;54381;53.516;49.424;2022-10-16T00:37:49;3.45;90.11
67547;HTU21D;54381;53.516;49.424;2022-10-16T00:40:20;3.47;90.12
67547;HTU21D;54381;53.516;49.424;2022-10-16T00:42:52;3.50;89.71
67547;HTU21D;54381;53.516;49.424;2022-10-16T00:45:23;3.54;89.37
67547;HTU21D;54381;53.516;49.424;2022-10-16T00:47:56;3.52;89.34
67547;HTU21D;54381;53.516;49.424;2022-10-16T00:50:33;3.55;89.34
67547;HTU21D;54381;53.516;49.424;2022-10-16T00:53:05;3.53;90.08
67547;HTU21D;54381;53.516;49.424;2022-10-16T00:55:36;3.45;89.75
67547;HTU21D;54381;53.516;49.424;2022-10-16T00:58:08;3.44;90.08
67547;HTU21D;54381;53.516;49.424;2022-10-16T01:00:40;3.44;90.00
67547;HTU21D;54381;53.516;49.424;2022-10-16T01:03:33;3.44;90.12
67547;HTU21D;54381;53.516;49.424;2022-10-16T01:06:26;3.39;90.30
67547;HTU21D;54381;53.516;49.424;2022-10-16T01:09:45;3.38;90.25
67547;HTU21D;54381;53.516;49.424;2022-10-16T01:15:17;3.39;90.47
67547;HTU21D;54381;53.516;49.424;2022-10-16T01:18:00;3.35;90.56
67547;HTU21D;54381;53.516;49.424;2022-10-16T01:20:35;3.33;90.78
67547;HTU21D;54381;53.516;49.424;2022-10-16T01:29:16;3.27;91.27
67547;HTU21D;54381;53.516;49.424;2022-10-16T01:31:53;3.30;91.28
67547;HTU21D;54381;53.516;49.424;2022-10-16T01:34:42;3.33;91.16
67547;HTU21D;54381;53.516;49.424;2022-10-16T01:37:22;3.33;90.88
67547;HTU21D;54381;53.516;49.424;2022-10-16T01:39:59;3.35;91.15
67547;HTU21D;54381;53.516;49.424;2022-10-16T01:42:36;3.35;91.18
67547;HTU21D;54381;53.516;49.424;2022-10-16T01:45:11;3.36;91.04
67547;HTU21D;54381;53.516;49.424;2022-10-16T01:47:45;3.33;90.80
67547;HTU21D;54381;53.516;49.424;2022-10-16T01:50:19;3.30;91.31
67547;HTU21D;54381;53.516;49.424;2022-10-16T01:52:52;3.27;91.33
67547;HTU21D;54381;53.516;49.424;2022-10-16T01:55:29;3.28;91.42
67547;HTU21D;54381;53.516;49.424;2022-10-16T01:58:05;3.24;91.69
67547;HTU21D;54381;53.516;49.424;2022-10-16T02:00:42;3.26;91.31
67547;HTU21D;54381;53.516;49.424;2022-10-16T02:03:16;3.25;91.29
67547;HTU21D;54381;53.516;49.424;2022-10-16T02:05:58;3.18;91.38
67547;HTU21D;54381;53.516;49.424;2022-10-16T02:08:30;3.17;91.62
67547;HTU21D;54381;53.516;49.424;2022-10-16T02:11:02;3.17;91.55
67547;HTU21D;54381;53.516;49.424;2022-10-16T02:13:40;3.12;91.89
67547;HTU21D;54381;53.516;49.424;2022-10-16T02:16:13;3.13;91.92
67547;HTU21D;54381;53.516;49.424;2022-10-16T02:18:45;3.09;92.01
67547;HTU21D;54381;53.516;49.424;2022-10-16T02:21:29;3.10;92.00
67547;HTU21D;54381;53.516;49.424;2022-10-16T02:29:42;3.15;91.91
67547;HTU21D;54381;53.516;49.424;2022-10-16T02:32:20;3.15;92.18
67547;HTU21D;54381;53.516;49.424;2022-10-16T02:34:52;3.16;91.98
67547;HTU21D;54381;53.516;49.424;2022-10-16T02:37:24;3.18;91.80
67547;HTU21D;54381;53.516;49.424;2022-10-16T02:39:57;3.17;92.04
67547;HTU21D;54381;53.516;49.424;2022-10-16T02:42:33;3.16;92.13
67547;HTU21D;54381;53.516;49.424;2022-10-16T02:45:06;3.15;92.04
67547;HTU21D;54381;53.516;49.424;2022-10-16T02:47:38;3.13;92.08
67547;HTU21D;54381;53.516;49.424;2022-10-16T02:50:10;3.14;92.34
67547;HTU21D;54381;53.516;49.424;2022-10-16T02:52:41;3.13;92.24
67547;HTU21D;54381;53.516;49.424;2022-10-16T02:55:13;3.14;91.88
67547;HTU21D;54381;53.516;49.424;2022-10-16T02:57:44;3.14;91.73
67547;HTU21D;54381;53.516;49.424;2022-10-16T03:00:17;3.14;91.90
67547;HTU21D;54381;53.516;49.424;2022-10-16T03:02:48;3.14;91.82
67547;HTU21D;54381;53.516;49.424;2022-10-16T03:05:20;3.17;92.14
67547;HTU21D;54381;53.516;49.424;2022-10-16T03:07:51;3.17;91.95
67547;HTU21D;54381;53.516;49.424;2022-10-16T03:10:23;3.16;92.03
67547;HTU21D;54381;53.516;49.424;2022-10-16T03:12:55;3.16;91.85
67547;HTU21D;54381;53.516;49.424;2022-10-16T03:15:26;3.18;91.82
67547;HTU21D;54381;53.516;49.424;2022-10-16T03:17:59;3.19;91.53
67547;HTU21D;54381;53.516;49.424;2022-10-16T03:20:30;3.21;91.43
67547;HTU21D;54381;53.516;49.424;2022-10-16T03:23:02;3.24;91.11
67547;HTU21D;54381;53.516;49.424;2022-10-16T03:25:34;3.28;91.05
67547;HTU21D;54381;53.516;49.424;2022-10-16T03:28:05;3.30;91.17
67547;HTU21D;54381;53.516;49.424;2022-10-16T03:30:37;3.35;90.94
67547;HTU21D;54381;53.516;49.424;2022-10-16T03:33:11;3.39;90.82
67547;HTU21D;54381;53.516;49.424;2022-10-16T03:35:51;3.43;89.99
67547;HTU21D;54381;53.516;49.424;2022-10-16T03:38:23;3.46;89.95
67547;HTU21D;54381;53.516;49.424;2022-10-16T03:40:55;3.48;89.73
67547;HTU21D;54381;53.516;49.424;2022-10-16T03:43:26;3.53;89.40
67547;HTU21D;54381;53.516;49.424;2022-10-16T03:45:58;3.57;89.54
67547;HTU21D;54381;53.516;49.424;2022-10-16T03:48:29;3.67;89.25
67547;HTU21D;54381;53.516;49.424;2022-10-16T03:51:01;3.93;88.09
67547;HTU21D;54381;53.516;49.424;2022-10-16T03:53:32;4.50;85.36
67547;HTU21D;54381;53.516;49.424;2022-10-16T03:56:04;4.61;84.83
67547;HTU21D;54381;53.516;49.424;2022-10-16T03:58:35;4.48;85.03
67547;HTU21D;54381;53.516;49.424;2022-10-16T04:01:07;4.41;85.69
67547;HTU21D;54381;53.516;49.424;2022-10-16T04:03:38;4.74;85.02
67547;HTU21D;54381;53.516;49.424;2022-10-16T04:06:10;5.48;81.68
67547;HTU21D;54381;53.516;49.424;2022-10-16T04:08:44;5.76;80.52
67547;HTU21D;54381;53.516;49.424;2022-10-16T04:11:16;5.66;80.81
67547;HTU21D;54381;53.516;49.424;2022-10-16T04:13:48;5.60;81.02
67547;HTU21D;54381;53.516;49.424;2022-10-16T04:16:19;5.66;81.15
67547;HTU21D;54381;53.516;49.424;2022-10-16T04:18:51;6.79;76.94
67547;HTU21D;54381;53.516;49.424;2022-10-16T04:21:22;8.15;71.32
67547;HTU21D;54381;53.516;49.424;2022-10-16T04:23:54;8.39;69.24
67547;HTU21D;54381;53.516;49.424;2022-10-16T04:26:25;7.63;73.00
67547;HTU21D;54381;53.516;49.424;2022-10-16T04:28:57;7.55;73.50
67547;HTU21D;54381;53.516;49.424;2022-10-16T04:31:28;7.87;72.13
67547;HTU21D;54381;53.516;49.424;2022-10-16T04:34:00;8.91;68.66
67547;HTU21D;54381;53.516;49.424;2022-10-16T04:36:31;10.87;61.95
67547;HTU21D;54381;53.516;49.424;2022-10-16T04:39:03;12.97;54.73
67547;HTU21D;54381;53.516;49.424;2022-10-16T04:41:35;13.90;51.62
67547;HTU21D;54381;53.516;49.424;2022-10-16T04:44:06;13.86;51.45
67547;HTU21D;54381;53.516;49.424;2022-10-16T04:46:38;12.85;53.89
67547;HTU21D;54381;53.516;49.424;2022-10-16T04:49:09;12.84;54.81
67547;HTU21D;54381;53.516;49.424;2022-10-16T04:51:41;12.05;56.45
67547;HTU21D;54381;53.516;49.424;2022-10-16T04:54:12;10.55;61.38
67547;HTU21D;54381;53.516;49.424;2022-10-16T04:56:44;9.42;64.79
67547;HTU21D;54381;53.516;49.424;2022-10-16T04:59:19;8.63;68.04
67547;HTU21D;54381;53.516;49.424;2022-10-16T05:01:50;8.18;70.37
67547;HTU21D;54381;53.516;49.424;2022-10-16T05:04:22;7.79;71.78
67547;HTU21D;54381;53.516;49.424;2022-10-16T05:06:53;7.48;73.14
67547;HTU21D;54381;53.516;49.424;2022-10-16T05:09:25;7.53;72.79
67547;HTU21D;54381;53.516;49.424;2022-10-16T05:11:56;7.48;73.70
67547;HTU21D;54381;53.516;49.424;2022-10-16T05:14:28;7.37;73.35
67547;HTU21D;54381;53.516;49.424;2022-10-16T05:17:00;7.84;71.77
67547;HTU21D;54381;53.516;49.424;2022-10-16T05:19:31;9.48;65.50
67547;HTU21D;54381;53.516;49.424;2022-10-16T05:22:03;9.57;64.72
67547;HTU21D;54381;53.516;49.424;2022-10-16T05:24:34;9.11;66.60
67547;HTU21D;54381;53.516;49.424;2022-10-16T05:27:06;8.68;67.69
67547;HTU21D;54381;53.516;49.424;2022-10-16T05:29:37;8.90;67.54
67547;HTU21D;54381;53.516;49.424;2022-10-16T05:32:09;12.82;55.12
67547;HTU21D;54381;53.516;49.424;2022-10-16T05:34:40;16.20;45.14
67547;HTU21D;54381;53.516;49.424;2022-10-16T05:37:12;15.63;46.24
67547;HTU21D;54381;53.516;49.424;2022-10-16T05:39:44;15.98;44.60
67547;HTU21D;54381;53.516;49.424;2022-10-16T05:42:15;16.30;43.74
67547;HTU21D;54381;53.516;49.424;2022-10-16T05:44:47;15.38;46.75
67547;HTU21D;54381;53.516;49.424;2022-10-16T05:47:18;15.29;46.48
67547;HTU21D;54381;53.516;49.424;2022-10-16T05:49:52;14.69;47.67
67547;HTU21D;54381;53.516;49.424;2022-10-16T05:52:24;13.48;51.30
67547;HTU21D;54381;53.516;49.424;2022-10-16T05:54:56;14.36;48.95
67547;HTU21D;54381;53.516;49.424;2022-10-16T05:57:27;15.70;44.78
67547;HTU21D;54381;53.516;49.424;2022-10-16T05:59:59;16.21;43.75
67547;HTU21D;54381;53.516;49.424;2022-10-16T06:02:30;15.53;46.49
67547;HTU21D;54381;53.516;49.424;2022-10-16T06:05:02;15.02;46.89
67547;HTU21D;54381;53.516;49.424;2022-10-16T06:07:34;14.44;48.43
67547;HTU21D;54381;53.516;49.424;2022-10-16T06:10:07;15.06;47.19
67547;HTU21D;54381;53.516;49.424;2022-10-16T06:12:40;16.06;44.02
67547;HTU21D;54381;53.516;49.424;2022-10-16T06:15:11;15.17;46.54
67547;HTU21D;54381;53.516;49.424;2022-10-16T06:17:42;14.98;46.76
67547;HTU21D;54381;53.516;49.424;2022-10-16T06:20:14;14.36;49.23
67547;HTU21D;54381;53.516;49.424;2022-10-16T06:22:46;16.13;44.23
67547;HTU21D;54381;53.516;49.424;2022-10-16T06:25:17;16.70;43.16
67547;HTU21D;54381;53.516;49.424;2022-10-16T06:27:49;16.49;43.16
67547;HTU21D;54381;53.516;49.424;2022-10-16T06:30:20;17.64;40.68
67547;HTU21D;54381;53.516;49.424;2022-10-16T06:32:53;19.30;36.79
67547;HTU21D;54381;53.516;49.424;2022-10-16T06:35:25;18.86;36.98
67547;HTU21D;54381;53.516;49.424;2022-10-16T06:37:56;17.76;39.06
67547;HTU21D;54381;53.516;49.424;2022-10-16T06:40:30;15.29;44.87
67547;HTU21D;54381;53.516;49.424;2022-10-16T06:43:02;13.36;50.56
67547;HTU21D;54381;53.516;49.424;2022-10-16T06:45:33;12.40;52.36
67547;HTU21D;54381;53.516;49.424;2022-10-16T06:48:05;11.75;56.27
67547;HTU21D;54381;53.516;49.424;2022-10-16T06:50:36;11.43;56.52
67547;HTU21D;54381;53.516;49.424;2022-10-16T06:53:08;11.40;57.46
67547;HTU21D;54381;53.516;49.424;2022-10-16T06:55:42;11.33;56.87
67547;HTU21D;54381;53.516;49.424;2022-10-16T06:58:14;11.16;58.32
67547;HTU21D;54381;53.516;49.424;2022-10-16T07:00:46;11.12;57.45
67547;HTU21D;54381;53.516;49.424;2022-10-16T07:03:17;10.81;58.54
67547;HTU21D;54381;53.516;49.424;2022-10-16T07:05:49;10.71;58.35
67547;HTU21D;54381;53.516;49.424;2022-10-16T07:08:21;10.72;58.51
67547;HTU21D;54381;53.516;49.424;2022-10-16T07:11:03;11.04;58.10
67547;HTU21D;54381;53.516;49.424;2022-10-16T07:13:39;11.18;58.46
67547;HTU21D;54381;53.516;49.424;2022-10-16T07:16:17;12.74;52.61
67547;HTU21D;54381;53.516;49.424;2022-10-16T07:18:49;14.41;47.25
67547;HTU21D;54381;53.516;49.424;2022-10-16T07:21:22;13.30;48.71
67547;HTU21D;54381;53.516;49.424;2022-10-16T07:23:57;12.91;48.66
67547;HTU21D;54381;53.516;49.424;2022-10-16T07:26:30;13.35;47.67
67547;HTU21D;54381;53.516;49.424;2022-10-16T07:29:02;13.37;47.00
67547;HTU21D;54381;53.516;49.424;2022-10-16T07:31:34;12.33;49.37
67547;HTU21D;54381;53.516;49.424;2022-10-16T07:34:06;11.78;49.69
67547;HTU21D;54381;53.516;49.424;2022-10-16T07:36:37;11.73;50.05
67547;HTU21D;54381;53.516;49.424;2022-10-16T07:39:09;11.66;50.66
67547;HTU21D;54381;53.516;49.424;2022-10-16T07:41:40;12.00;51.02
67547;HTU21D;54381;53.516;49.424;2022-10-16T07:44:12;11.82;51.04
67547;HTU21D;54381;53.516;49.424;2022-10-16T07:46:44;11.86;50.78
67547;HTU21D;54381;53.516;49.424;2022-10-16T07:49:15;12.20;50.68
67547;HTU21D;54381;53.516;49.424;2022-10-16T07:51:50;12.12;50.33
67547;HTU21D;54381;53.516;49.424;2022-10-16T07:54:21;11.91;49.37
67547;HTU21D;54381;53.516;49.424;2022-10-16T07:56:53;12.87;46.95
67547;HTU21D;54381;53.516;49.424;2022-10-16T07:59:24;14.22;44.06
67547;HTU21D;54381;53.516;49.424;2022-10-16T08:01:56;16.26;39.90
67547;HTU21D;54381;53.516;49.424;2022-10-16T08:04:28;15.42;40.04
67547;HTU21D;54381;53.516;49.424;2022-10-16T08:06:59;14.08;43.41
67547;HTU21D;54381;53.516;49.424;2022-10-16T08:09:31;14.05;43.79
67547;HTU21D;54381;53.516;49.424;2022-10-16T08:12:02;13.53;46.26
67547;HTU21D;54381;53.516;49.424;2022-10-16T08:14:35;12.71;48.04
67547;HTU21D;54381;53.516;49.424;2022-10-16T08:17:06;12.46;49.25
67547;HTU21D;54381;53.516;49.424;2022-10-16T08:19:38;12.13;47.10
67547;HTU21D;54381;53.516;49.424;2022-10-16T08:22:10;11.83;49.78
67547;HTU21D;54381;53.516;49.424;2022-10-16T08:24:41;11.79;50.00
67547;HTU21D;54381;53.516;49.424;2022-10-16T08:27:12;11.93;49.96
67547;HTU21D;54381;53.516;49.424;2022-10-16T08:29:44;11.73;51.66
67547;HTU21D;54381;53.516;49.424;2022-10-16T08:32:16;11.56;48.97
67547;HTU21D;54381;53.516;49.424;2022-10-16T08:34:47;11.36;50.68
67547;HTU21D;54381;53.516;49.424;2022-10-16T08:37:22;11.59;50.99
67547;HTU21D;54381;53.516;49.424;2022-10-16T08:39:54;11.81;49.34
67547;HTU21D;54381;53.516;49.424;2022-10-16T08:42:45;11.85;50.21
67547;HTU21D;54381;53.516;49.424;2022-10-16T08:45:35;11.93;49.80
67547;HTU21D;54381;53.516;49.424;2022-10-16T08:48:29;12.18;49.27
67547;HTU21D;54381;53.516;49.424;2022-10-16T08:51:03;12.32;48.52
67547;HTU21D;54381;53.516;49.424;2022-10-16T08:53:43;12.62;47.47
67547;HTU21D;54381;53.516;49.424;2022-10-16T08:56:17;12.63;46.68
67547;HTU21D;54381;53.516;49.424;2022-10-16T08:58:50;12.58;47.76
67547;HTU21D;54381;53.516;49.424;2022-10-16T09:01:25;12.52;46.61
67547;HTU21D;54381;53.516;49.424;2022-10-16T09:04:43;12.20;48.31
67547;HTU21D;54381;53.516;49.424;2022-10-16T09:10:08;11.97;48.58
67547;HTU21D;54381;53.516;49.424;2022-10-16T09:15:56;11.97;47.22
67547;HTU21D;54381;53.516;49.424;2022-10-16T09:18:39;11.83;47.26
67547;HTU21D;54381;53.516;49.424;2022-10-16T09:23:51;11.72;47.93
67547;HTU21D;54381;53.516;49.424;2022-10-16T09:26:23;11.82;48.49
67547;HTU21D;54381;53.516;49.424;2022-10-16T09:28:54;11.96;49.34
67547;HTU21D;54381;53.516;49.424;2022-10-16T09:31:26;11.73;49.69
67547;HTU21D;54381;53.516;49.424;2022-10-16T09:34:02;11.32;49.37
67547;HTU21D;54381;53.516;49.424;2022-10-16T09:36:43;11.08;52.59
67547;HTU21D;54381;53.516;49.424;2022-10-16T09:39:16;10.87;52.34
67547;HTU21D;54381;53.516;49.424;2022-10-16T09:41:47;10.94;51.16
67547;HTU21D;54381;53.516;49.424;2022-10-16T09:44:26;10.94;51.44
67547;HTU21D;54381;53.516;49.424;2022-10-16T09:47:17;11.01;52.83
67547;HTU21D;54381;53.516;49.424;2022-10-16T09:50:13;10.96;52.06
67547;HTU21D;54381;53.516;49.424;2022-10-16T09:52:50;10.92;51.35
67547;HTU21D;54381;53.516;49.424;2022-10-16T09:55:22;10.90;51.50
67547;HTU21D;54381;53.516;49.424;2022-10-16T09:57:54;10.90;52.51
67547;HTU21D;54381;53.516;49.424;2022-10-16T10:00:26;11.03;52.05
67547;HTU21D;54381;53.516;49.424;2022-10-16T10:02:57;11.29;51.95
67547;HTU21D;54381;53.516;49.424;2022-10-16T10:05:32;11.41;51.88
67547;HTU21D;54381;53.516;49.424;2022-10-16T10:08:05;11.56;50.10
67547;HTU21D;54381;53.516;49.424;2022-10-16T10:10:42;11.46;49.27
67547;HTU21D;54381;53.516;49.424;2022-10-16T10:13:20;11.11;49.25
67547;HTU21D;54381;53.516;49.424;2022-10-16T10:15:52;10.94;50.69
67547;HTU21D;54381;53.516;49.424;2022-10-16T10:18:24;10.93;51.06
67547;HTU21D;54381;53.516;49.424;2022-10-16T10:20:59;11.00;50.59
67547;HTU21D;54381;53.516;49.424;2022-10-16T10:23:31;10.97;50.74
67547;HTU21D;54381;53.516;49.424;2022-10-16T10:29:19;10.82;50.69
67547;HTU21D;54381;53.516;49.424;2022-10-16T10:35:15;10.63;50.90
67547;HTU21D;54381;53.516;49.424;2022-10-16T10:40:43;10.55;52.21
67547;HTU21D;54381;53.516;49.424;2022-10-16T10:43:41;10.66;51.26
67547;HTU21D;54381;53.516;49.424;2022-10-16T10:46:41;10.65;51.88
67547;HTU21D;54381;53.516;49.424;2022-10-16T10:57:32;10.54;51.79
67547;HTU21D;54381;53.516;49.424;2022-10-16T11:06:07;10.48;52.53
67547;HTU21D;54381;53.516;49.424;2022-10-16T11:08:49;10.55;51.54
67547;HTU21D;54381;53.516;49.424;2022-10-16T11:11:47;10.50;51.93
67547;HTU21D;54381;53.516;49.424;2022-10-16T11:14:28;10.52;52.21
67547;HTU21D;54381;53.516;49.424;2022-10-16T11:17:34;10.53;52.77
67547;HTU21D;54381;53.516;49.424;2022-10-16T11:20:25;10.45;52.46
67547;HTU21D;54381;53.516;49.424;2022-10-16T11:23:08;10.40;54.43
67547;HTU21D;54381;53.516;49.424;2022-10-16T11:25:43;10.43;53.58
67547;HTU21D;54381;53.516;49.424;2022-10-16T11:28:48;10.43;53.62
67547;HTU21D;54381;53.516;49.424;2022-10-16T11:37:16;10.28;53.40
67547;HTU21D;54381;53.516;49.424;2022-10-16T11:39:50;10.24;53.34
67547;HTU21D;54381;53.516;49.424;2022-10-16T11:42:32;10.24;54.64
67547;HTU21D;54381;53.516;49.424;2022-10-16T11:48:08;10.22;53.15
67547;HTU21D;54381;53.516;49.424;2022-10-16T11:50:45;10.18;53.54
67547;HTU21D;54381;53.516;49.424;2022-10-16T11:53:56;10.15;53.82
67547;HTU21D;54381;53.516;49.424;2022-10-16T11:56:31;10.14;53.73
67547;HTU21D;54381;53.516;49.424;2022-10-16T12:05:13;10.10;54.51
67547;HTU21D;54381;53.516;49.424;2022-10-16T12:10:26;9.99;55.00
67547;HTU21D;54381;53.516;49.424;2022-10-16T12:13:38;9.95;55.07
67547;HTU21D;54381;53.516;49.424;2022-10-16T12:18:46;9.93;55.12
67547;HTU21D;54381;53.516;49.424;2022-10-16T12:21:18;9.94;54.84
67547;HTU21D;54381;53.516;49.424;2022-10-16T12:23:57;9.94;55.13
67547;HTU21D;54381;53.516;49.424;2022-10-16T12:26:32;9.94;55.61
67547;HTU21D;54381;53.516;49.424;2022-10-16T12:29:33;9.92;54.79
67547;HTU21D;54381;53.516;49.424;2022-10-16T12:35:02;9.84;55.78
67547;HTU21D;54381;53.516;49.424;2022-10-16T12:37:36;9.83;55.96
67547;HTU21D;54381;53.516;49.424;2022-10-16T12:40:23;9.81;56.28
67547;HTU21D;54381;53.516;49.424;2022-10-16T12:42:56;9.74;57.11
67547;HTU21D;54381;53.516;49.424;2022-10-16T12:45:31;9.72;56.48
67547;HTU21D;54381;53.516;49.424;2022-10-16T12:48:18;9.68;56.36
67547;HTU21D;54381;53.516;49.424;2022-10-16T12:50:50;9.57;55.73
67547;HTU21D;54381;53.516;49.424;2022-10-16T12:53:26;9.53;56.60
67547;HTU21D;54381;53.516;49.424;2022-10-16T12:56:19;9.48;57.12
67547;HTU21D;54381;53.516;49.424;2022-10-16T13:18:21;8.94;60.09
67547;HTU21D;54381;53.516;49.424;2022-10-16T13:29:45;8.58;61.37
67547;HTU21D;54381;53.516;49.424;2022-10-16T13:32:23;8.51;61.61
67547;HTU21D;54381;53.516;49.424;2022-10-16T13:35:02;8.46;61.79
67547;HTU21D;54381;53.516;49.424;2022-10-16T13:37:35;8.41;62.74
67547;HTU21D;54381;53.516;49.424;2022-10-16T13:40:23;8.36;63.41
67547;HTU21D;54381;53.516;49.424;2022-10-16T13:42:55;8.30;63.23
67547;HTU21D;54381;53.516;49.424;2022-10-16T13:45:29;8.27;64.36
67547;HTU21D;54381;53.516;49.424;2022-10-16T13:48:08;8.19;64.85
67547;HTU21D;54381;53.516;49.424;2022-10-16T13:50:40;8.12;64.20
67547;HTU21D;54381;53.516;49.424;2022-10-16T13:53:13;8.04;64.74
67547;HTU21D;54381;53.516;49.424;2022-10-16T13:55:47;7.98;65.47
67547;HTU21D;54381;53.516;49.424;2022-10-16T13:58:19;7.91;67.11
67547;HTU21D;54381;53.516;49.424;2022-10-16T14:01:00;7.84;66.45
67547;HTU21D;54381;53.516;49.424;2022-10-16T14:03:33;7.78;68.17
67547;HTU21D;54381;53.516;49.424;2022-10-16T14:06:16;7.71;68.03
67547;HTU21D;54381;53.516;49.424;2022-10-16T14:09:09;7.68;69.04
67547;HTU21D;54381;53.516;49.424;2022-10-16T14:11:58;7.64;69.63
67547;HTU21D;54381;53.516;49.424;2022-10-16T14:14:40;7.60;69.97
67547;HTU21D;54381;53.516;49.424;2022-10-16T14:17:20;7.56;70.51
67547;HTU21D;54381;53.516;49.424;2022-10-16T14:19:55;7.53;71.07
67547;HTU21D;54381;53.516;49.424;2022-10-16T14:22:36;7.46;71.80
67547;HTU21D;54381;53.516;49.424;2022-10-16T14:28:01;7.27;71.29
67547;HTU21D;54381;53.516;49.424;2022-10-16T14:30:35;7.18;71.10
67547;HTU21D;54381;53.516;49.424;2022-10-16T14:33:23;7.12;72.03
67547;HTU21D;54381;53.516;49.424;2022-10-16T14:38:49;7.03;72.25
67547;HTU21D;54381;53.516;49.424;2022-10-16T14:41:24;6.98;73.13
67547;HTU21D;54381;53.516;49.424;2022-10-16T14:43:58;6.90;73.73
67547;HTU21D;54381;53.516;49.424;2022-10-16T14:46:38;6.87;74.31
67547;HTU21D;54381;53.516;49.424;2022-10-16T14:51:42;6.79;75.00
67547;HTU21D;54381;53.516;49.424;2022-10-16T14:54:17;6.73;75.76
67547;HTU21D;54381;53.516;49.424;2022-10-16T14:57:00;6.69;76.55
67547;HTU21D;54381;53.516;49.424;2022-10-16T14:59:44;6.65;77.26
67547;HTU21D;54381;53.516;49.424;2022-10-16T15:02:27;6.60;77.30
67547;HTU21D;54381;53.516;49.424;2022-10-16T15:08:02;6.52;77.87
67547;HTU21D;54381;53.516;49.424;2022-10-16T15:10:39;6.50;77.95
67547;HTU21D;54381;53.516;49.424;2022-10-16T15:13:14;6.45;78.48
67547;HTU21D;54381;53.516;49.424;2022-10-16T15:15:46;6.41;78.48
67547;HTU21D;54381;53.516;49.424;2022-10-16T15:18:18;6.38;78.92
67547;HTU21D;54381;53.516;49.424;2022-10-16T15:20:58;6.35;79.85
67547;HTU21D;54381;53.516;49.424;2022-10-16T15:23:29;6.30;79.49
67547;HTU21D;54381;53.516;49.424;2022-10-16T15:26:01;6.27;79.81
67547;HTU21D;54381;53.516;49.424;2022-10-16T15:28:32;6.25;79.63
67547;HTU21D;54381;53.516;49.424;2022-10-16T15:31:09;6.21;80.40
67547;HTU21D;54381;53.516;49.424;2022-10-16T15:33:40;6.17;80.40
67547;HTU21D;54381;53.516;49.424;2022-10-16T15:36:12;6.14;80.75
67547;HTU21D;54381;53.516;49.424;2022-10-16T15:39:20;6.10;80.95
67547;HTU21D;54381;53.516;49.424;2022-10-16T15:41:51;6.06;81.39
67547;HTU21D;54381;53.516;49.424;2022-10-16T15:44:27;6.06;81.52
67547;HTU21D;54381;53.516;49.424;2022-10-16T15:47:01;6.05;81.08
67547;HTU21D;54381;53.516;49.424;2022-10-16T15:49:33;6.05;81.21
67547;HTU21D;54381;53.516;49.424;2022-10-16T15:52:04;6.02;81.46
67547;HTU21D;54381;53.516;49.424;2022-10-16T15:54:36;6.00;81.97
67547;HTU21D;54381;53.516;49.424;2022-10-16T15:57:07;5.96;81.67
67547;HTU21D;54381;53.516;49.424;2022-10-16T15:59:39;5.92;81.98
67547;HTU21D;54381;53.516;49.424;2022-10-16T16:02:10;5.86;82.17
67547;HTU21D;54381;53.516;49.424;2022-10-16T16:04:42;5.79;82.98
67547;HTU21D;54381;53.516;49.424;2022-10-16T16:07:13;5.77;82.97
67547;HTU21D;54381;53.516;49.424;2022-10-16T16:09:48;5.78;83.05
67547;HTU21D;54381;53.516;49.424;2022-10-16T16:12:19;5.75;82.88
67547;HTU21D;54381;53.516;49.424;2022-10-16T16:14:51;5.70;82.86
67547;HTU21D;54381;53.516;49.424;2022-10-16T16:17:23;5.69;82.91
67547;HTU21D;54381;53.516;49.424;2022-10-16T16:19:55;5.68;83.61
67547;HTU21D;54381;53.516;49.424;2022-10-16T16:22:27;5.65;83.67
67547;HTU21D;54381;53.516;49.424;2022-10-16T16:25:19;5.61;83.65
67547;HTU21D;54381;53.516;49.424;2022-10-16T16:27:50;5.55;83.73
67547;HTU21D;54381;53.516;49.424;2022-10-16T16:30:50;5.50;83.78
67547;HTU21D;54381;53.516;49.424;2022-10-16T16:33:22;5.47;84.00
67547;HTU21D;54381;53.516;49.424;2022-10-16T16:36:02;5.41;84.09
67547;HTU21D;54381;53.516;49.424;2022-10-16T16:38:34;5.41;84.23
67547;HTU21D;54381;53.516;49.424;2022-10-16T16:41:14;5.39;84.10
67547;HTU21D;54381;53.516;49.424;2022-10-16T16:43:46;5.38;84.36
67547;HTU21D;54381;53.516;49.424;2022-10-16T16:46:19;5.35;84.30
67547;HTU21D;54381;53.516;49.424;2022-10-16T16:48:51;5.34;84.19
67547;HTU21D;54381;53.516;49.424;2022-10-16T16:51:25;5.33;83.98
67547;HTU21D;54381;53.516;49.424;2022-10-16T16:54:17;5.28;84.40
67547;HTU21D;54381;53.516;49.424;2022-10-16T16:56:48;5.27;84.04
67547;HTU21D;54381;53.516;49.424;2022-10-16T16:59:21;5.24;84.14
67547;HTU21D;54381;53.516;49.424;2022-10-16T17:01:53;5.21;84.27
67547;HTU21D;54381;53.516;49.424;2022-10-16T17:04:24;5.19;84.45
67547;HTU21D;54381;53.516;49.424;2022-10-16T17:06:56;5.17;84.24
67547;HTU21D;54381;53.516;49.424;2022-10-16T17:09:27;5.15;84.13
67547;HTU21D;54381;53.516;49.424;2022-10-16T17:11:59;5.09;84.42
67547;HTU21D;54381;53.516;49.424;2022-10-16T17:14:38;5.06;84.81
67547;HTU21D;54381;53.516;49.424;2022-10-16T17:17:10;5.03;84.55
67547;HTU21D;54381;53.516;49.424;2022-10-16T17:19:42;5.01;85.03
67547;HTU21D;54381;53.516;49.424;2022-10-16T17:22:14;5.02;84.83
67547;HTU21D;54381;53.516;49.424;2022-10-16T17:24:48;4.96;85.55
67547;HTU21D;54381;53.516;49.424;2022-10-16T17:27:20;4.94;85.04
67547;HTU21D;54381;53.516;49.424;2022-10-16T17:29:53;4.91;85.41
67547;HTU21D;54381;53.516;49.424;2022-10-16T17:32:25;4.89;84.84
67547;HTU21D;54381;53.516;49.424;2022-10-16T17:35:15;4.83;85.08
67547;HTU21D;54381;53.516;49.424;2022-10-16T17:37:47;4.81;85.09
67547;HTU21D;54381;53.516;49.424;2022-10-16T17:40:19;4.79;85.35
67547;HTU21D;54381;53.516;49.424;2022-10-16T17:42:50;4.77;84.95
67547;HTU21D;54381;53.516;49.424;2022-10-16T17:45:22;4.74;85.02
67547;HTU21D;54381;53.516;49.424;2022-10-16T17:47:53;4.73;85.08
67547;HTU21D;54381;53.516;49.424;2022-10-16T17:50:25;4.71;85.48